createdAt,value
2023-04-20T00:02:24.351Z,7.65
2023-04-20T00:04:54.485Z,8.45
2023-04-20T00:07:24.904Z,7.40
2023-04-20T00:09:53.143Z,7.10
2023-04-20T00:12:21.779Z,7.30
2023-04-20T00:14:50.150Z,6.03
2023-04-20T00:17:18.821Z,7.65
2023-04-20T00:19:47.429Z,6.90
2023-04-20T00:22:17.225Z,8.05
2023-04-20T00:24:45.509Z,6.30
2023-04-20T00:27:14.278Z,7.40
2023-04-20T00:29:42.809Z,6.85
2023-04-20T00:32:11.383Z,6.60
2023-04-20T00:34:40.292Z,6.75
2023-04-20T00:37:08.826Z,7.32
2023-04-20T00:39:38.348Z,6.70
2023-04-20T00:42:07.704Z,6.22
2023-04-20T00:44:36.553Z,6.85
2023-04-20T00:47:05.065Z,7.10
2023-04-20T00:49:33.520Z,7.35
2023-04-20T00:52:02.471Z,7.22
2023-04-20T00:54:31.610Z,7.10
2023-04-20T00:57:02.655Z,7.30
2023-04-20T00:59:30.912Z,7.32
2023-04-20T01:01:59.884Z,7.22
2023-04-20T01:04:28.621Z,6.75
2023-04-20T01:06:57.254Z,7.88
2023-04-20T01:09:25.445Z,7.90
2023-04-20T01:11:54.070Z,7.30
2023-04-20T01:14:23.681Z,6.25
2023-04-20T01:16:52.164Z,6.88
2023-04-20T01:19:21.608Z,7.95
2023-04-20T01:21:50.076Z,7.63
2023-04-20T01:24:19.911Z,7.35
2023-04-20T01:26:48.401Z,8.20
2023-04-20T01:29:16.802Z,8.38
2023-04-20T01:31:45.528Z,8.15
2023-04-20T01:34:13.789Z,8.40
2023-04-20T01:36:42.305Z,7.75
2023-04-20T01:39:11.309Z,7.13
2023-04-20T01:41:41.582Z,6.78
2023-04-20T01:44:09.852Z,8.45
2023-04-20T01:46:39.449Z,7.57
2023-04-20T01:49:08.035Z,7.85
2023-04-20T01:51:36.891Z,7.13
2023-04-20T01:54:05.502Z,7.45
2023-04-20T01:56:34.167Z,7.18
2023-04-20T01:59:03.848Z,6.43
2023-04-20T02:01:32.477Z,6.75
2023-04-20T02:04:00.955Z,6.03
2023-04-20T02:06:29.542Z,6.03
2023-04-20T02:08:57.691Z,7.03
2023-04-20T02:11:26.472Z,6.65
2023-04-20T02:13:54.799Z,5.70
2023-04-20T02:16:25.645Z,6.38
2023-04-20T02:18:54.765Z,6.72
2023-04-20T02:21:23.366Z,7.57
2023-04-20T02:23:51.578Z,5.07
2023-04-20T02:26:20.525Z,6.78
2023-04-20T02:28:48.862Z,7.72
2023-04-20T02:31:17.401Z,6.78
2023-04-20T02:33:47.866Z,6.30
2023-04-20T02:36:16.631Z,5.55
2023-04-20T02:38:44.884Z,7.55
2023-04-20T02:41:13.387Z,6.60
2023-04-20T02:43:41.860Z,6.00
2023-04-20T02:46:10.560Z,6.75
2023-04-20T02:48:38.846Z,6.20
2023-04-20T02:51:09.160Z,6.97
2023-04-20T02:53:37.490Z,6.63
2023-04-20T02:56:06.413Z,6.53
2023-04-20T02:58:34.840Z,5.65
2023-04-20T03:01:03.722Z,5.22
2023-04-20T03:03:32.195Z,6.45
2023-04-20T03:06:00.865Z,6.90
2023-04-20T03:08:30.432Z,8.15
2023-04-20T03:10:58.944Z,7.55
2023-04-20T03:13:27.294Z,6.18
2023-04-20T03:15:56.351Z,7.40
2023-04-20T03:18:24.553Z,7.38
2023-04-20T03:20:53.248Z,7.47
2023-04-20T03:23:21.908Z,8.77
2023-04-20T03:25:52.117Z,8.55
2023-04-20T03:28:20.415Z,7.43
2023-04-20T03:30:49.044Z,10.57
2023-04-20T03:33:17.298Z,8.75
2023-04-20T03:35:45.827Z,6.75
2023-04-20T03:38:14.061Z,7.13
2023-04-20T03:40:45.062Z,8.02
2023-04-20T03:43:14.710Z,7.85
2023-04-20T03:45:43.471Z,7.13
2023-04-20T03:48:11.763Z,8.27
2023-04-20T03:50:40.474Z,7.53
2023-04-20T03:53:10.497Z,8.20
2023-04-20T03:55:39.151Z,6.65
2023-04-20T03:58:07.689Z,7.00
2023-04-20T04:00:37.847Z,8.32
2023-04-20T04:03:06.352Z,6.80
2023-04-20T04:05:35.539Z,6.93
2023-04-20T04:08:03.984Z,7.55
2023-04-20T04:10:32.528Z,7.78
2023-04-20T04:13:01.104Z,7.20
2023-04-20T04:15:29.858Z,8.43
2023-04-20T04:17:59.535Z,7.65
2023-04-20T04:20:28.258Z,8.85
2023-04-20T04:22:57.466Z,7.55
2023-04-20T04:25:26.078Z,7.18
2023-04-20T04:27:54.668Z,7.75
2023-04-20T04:30:24.137Z,8.10
2023-04-20T04:32:52.884Z,7.40
2023-04-20T04:35:22.941Z,6.50
2023-04-20T04:37:52.701Z,7.38
2023-04-20T04:40:21.682Z,6.90
2023-04-20T04:42:50.022Z,7.78
2023-04-20T04:45:19.070Z,6.95
2023-04-20T04:47:47.423Z,6.55
2023-04-20T04:50:17.355Z,6.60
2023-04-20T04:52:47.284Z,6.88
2023-04-20T04:55:16.687Z,6.57
2023-04-20T04:57:45.144Z,7.00
2023-04-20T05:00:15.657Z,6.65
2023-04-20T05:02:44.243Z,6.13
2023-04-20T05:05:13.152Z,7.30
2023-04-20T05:07:41.783Z,6.60
2023-04-20T05:10:12.726Z,6.32
2023-04-20T05:12:42.782Z,6.28
2023-04-20T05:15:12.279Z,6.03
2023-04-20T05:17:40.769Z,6.35
2023-04-20T05:20:11.988Z,6.32
2023-04-20T05:22:40.675Z,6.15
2023-04-20T05:25:13.732Z,7.00
2023-04-20T05:27:42.370Z,6.18
2023-04-20T05:30:20.357Z,5.85
2023-04-20T05:32:52.292Z,5.38
2023-04-20T05:35:22.450Z,5.22
2023-04-20T05:37:50.877Z,5.45
2023-04-20T05:40:20.730Z,5.93
2023-04-20T05:42:49.003Z,5.63
2023-04-20T05:45:17.805Z,5.28
2023-04-20T05:47:54.253Z,7.15
2023-04-20T05:50:25.825Z,5.57
2023-04-20T05:52:54.618Z,6.25
2023-04-20T05:55:24.961Z,7.13
2023-04-20T05:57:53.938Z,7.13
2023-04-20T06:00:25.880Z,7.43
2023-04-20T06:02:55.573Z,5.63
2023-04-20T06:05:24.619Z,5.00
2023-04-20T06:07:53.236Z,5.47
2023-04-20T06:10:22.495Z,5.75
2023-04-20T06:12:52.242Z,5.72
2023-04-20T06:15:21.100Z,6.18
2023-04-20T06:17:49.511Z,4.75
2023-04-20T06:20:18.186Z,5.68
2023-04-20T06:22:47.029Z,5.22
2023-04-20T06:25:16.649Z,6.05
2023-04-20T06:27:45.330Z,5.88
2023-04-20T06:30:16.259Z,5.55
2023-04-20T06:32:44.678Z,5.70
2023-04-20T06:35:13.887Z,4.57
2023-04-20T06:37:42.388Z,5.80
2023-04-20T06:40:11.060Z,6.22
2023-04-20T06:42:39.271Z,5.78
2023-04-20T06:45:09.429Z,5.15
2023-04-20T06:47:39.140Z,5.25
2023-04-20T06:50:10.074Z,4.60
2023-04-20T06:52:39.083Z,4.72
2023-04-20T06:55:10.578Z,5.35
2023-04-20T06:57:39.624Z,4.82
2023-04-20T07:00:10.129Z,5.57
2023-04-20T07:02:47.570Z,5.55
2023-04-20T07:05:17.299Z,5.47
2023-04-20T07:07:45.972Z,5.50
2023-04-20T07:10:16.323Z,4.53
2023-04-20T07:12:45.270Z,4.40
2023-04-20T07:15:15.036Z,4.53
2023-04-20T07:17:43.463Z,4.70
2023-04-20T07:20:15.932Z,4.65
2023-04-20T07:22:44.191Z,4.55
2023-04-20T07:25:12.778Z,4.47
2023-04-20T07:27:42.550Z,5.03
2023-04-20T07:30:12.142Z,4.35
2023-04-20T07:32:42.152Z,4.70
2023-04-20T07:35:11.738Z,5.45
2023-04-20T07:37:41.780Z,5.07
2023-04-20T07:40:11.872Z,5.90
2023-04-20T07:42:40.429Z,6.13
2023-04-20T07:45:11.338Z,5.18
2023-04-20T07:47:40.097Z,5.15
2023-04-20T07:50:09.506Z,4.55
2023-04-20T07:52:38.193Z,4.32
2023-04-20T07:55:11.926Z,3.95
2023-04-20T07:57:40.363Z,5.57
2023-04-20T08:00:10.474Z,5.13
2023-04-20T08:02:39.158Z,4.53
2023-04-20T08:05:10.207Z,5.57
2023-04-20T08:07:38.739Z,4.88
2023-04-20T08:10:10.659Z,4.20
2023-04-20T08:12:40.597Z,5.05
2023-04-20T08:15:11.038Z,4.55
2023-04-20T08:17:39.439Z,6.05
2023-04-20T08:20:10.694Z,4.88
2023-04-20T08:22:39.855Z,5.15
2023-04-20T08:25:10.284Z,4.95
2023-04-20T08:27:38.726Z,4.60
2023-04-20T08:30:08.780Z,5.45
2023-04-20T08:32:37.126Z,4.68
2023-04-20T08:35:06.378Z,5.18
2023-04-20T08:37:34.947Z,4.55
2023-04-20T08:40:05.717Z,4.20
2023-04-20T08:42:35.386Z,3.72
2023-04-20T08:45:04.173Z,4.28
2023-04-20T08:47:34.221Z,5.20
2023-04-20T08:50:05.366Z,4.55
2023-04-20T08:52:35.625Z,4.90
2023-04-20T08:55:04.416Z,5.05
2023-04-20T08:57:32.741Z,4.68
2023-04-20T09:00:13.437Z,5.80
2023-04-20T09:02:58.912Z,4.82
2023-04-20T09:05:29.508Z,4.90
2023-04-20T09:08:00.202Z,4.40
2023-04-20T09:10:41.431Z,3.90
2023-04-20T09:13:22.311Z,4.60
2023-04-20T09:15:52.671Z,5.03
2023-04-20T09:18:21.417Z,3.95
2023-04-20T09:20:50.409Z,4.05
2023-04-20T09:23:20.551Z,4.18
2023-04-20T09:25:53.218Z,4.00
2023-04-20T09:28:21.974Z,3.92
2023-04-20T09:30:52.339Z,3.58
2023-04-20T09:33:20.694Z,3.88
2023-04-20T09:35:49.670Z,3.72
2023-04-20T09:38:18.858Z,3.78
2023-04-20T09:40:47.615Z,3.67
2023-04-20T09:43:20.956Z,3.40
2023-04-20T09:45:50.512Z,3.65
2023-04-20T09:48:23.045Z,3.92
2023-04-20T09:50:52.042Z,3.60
2023-04-20T09:53:21.203Z,4.03
2023-04-20T09:55:51.328Z,4.22
2023-04-20T09:58:21.083Z,3.03
2023-04-20T10:00:50.271Z,3.63
2023-04-20T10:03:21.909Z,4.30
2023-04-20T10:05:55.675Z,2.97
2023-04-20T10:08:25.448Z,3.53
2023-04-20T10:10:54.249Z,3.13
2023-04-20T10:13:33.803Z,3.58
2023-04-20T10:16:02.644Z,3.63
2023-04-20T10:18:32.458Z,3.00
2023-04-20T10:21:09.547Z,3.85
2023-04-20T10:23:49.010Z,3.72
2023-04-20T10:26:17.679Z,3.65
2023-04-20T10:28:46.458Z,4.13
2023-04-20T10:31:17.099Z,4.32
2023-04-20T10:33:54.990Z,5.28
2023-04-20T10:36:29.028Z,4.32
2023-04-20T10:38:57.906Z,3.70
2023-04-20T10:41:27.113Z,4.32
2023-04-20T10:43:55.392Z,4.18
2023-04-20T10:46:26.221Z,4.15
2023-04-20T10:49:01.673Z,3.83
2023-04-20T10:51:30.790Z,3.78
2023-04-20T10:54:04.992Z,3.92
2023-04-20T10:56:41.890Z,3.60
2023-04-20T10:59:11.865Z,3.10
2023-04-20T11:01:41.040Z,4.38
2023-04-20T11:04:12.148Z,3.08
2023-04-20T11:06:41.196Z,4.85
2023-04-20T11:09:20.756Z,3.22
2023-04-20T11:12:02.069Z,3.78
2023-04-20T11:14:31.229Z,4.07
2023-04-20T11:17:00.020Z,3.17
2023-04-20T11:19:32.953Z,3.60
2023-04-20T11:22:02.924Z,3.55
2023-04-20T11:24:32.928Z,2.20
2023-04-20T11:27:02.656Z,3.70
2023-04-20T11:29:33.385Z,2.80
2023-04-20T11:32:04.232Z,3.80
2023-04-20T11:34:35.227Z,3.88
2023-04-20T11:37:07.721Z,2.85
2023-04-20T11:39:36.225Z,2.88
2023-04-20T11:42:05.598Z,3.63
2023-04-20T11:44:36.487Z,2.42
2023-04-20T11:47:06.245Z,3.78
2023-04-20T11:49:36.211Z,4.00
2023-04-20T11:52:05.332Z,3.65
2023-04-20T11:54:35.295Z,3.13
2023-04-20T11:57:04.489Z,4.05
2023-04-20T11:59:33.221Z,3.67
2023-04-20T12:02:04.262Z,3.38
2023-04-20T12:04:36.659Z,3.88
2023-04-20T12:07:06.931Z,3.33
2023-04-20T12:09:38.132Z,5.28
2023-04-20T12:12:08.683Z,3.35
2023-04-20T12:14:37.173Z,2.92
2023-04-20T12:17:06.356Z,2.75
2023-04-20T12:19:34.748Z,3.53
2023-04-20T12:22:03.664Z,4.53
2023-04-20T12:24:33.364Z,3.72
2023-04-20T12:27:03.852Z,4.22
2023-04-20T12:29:33.244Z,4.35
2023-04-20T12:32:02.159Z,4.60
2023-04-20T12:34:30.778Z,3.72
2023-04-20T12:36:59.745Z,3.75
2023-04-20T12:39:28.520Z,3.55
2023-04-20T12:41:58.451Z,4.30
2023-04-20T12:44:26.823Z,4.30
2023-04-20T12:46:55.767Z,3.83
2023-04-20T12:49:24.208Z,4.55
2023-04-20T12:51:52.884Z,3.33
2023-04-20T12:54:21.328Z,4.20
2023-04-20T12:56:49.939Z,4.53
2023-04-20T12:59:19.618Z,3.35
2023-04-20T13:01:48.563Z,3.28
2023-04-20T13:04:17.516Z,1.88
2023-04-20T13:06:46.558Z,3.17
2023-04-20T13:09:14.878Z,3.35
2023-04-20T13:11:43.566Z,3.38
2023-04-20T13:14:14.705Z,3.38
2023-04-20T13:16:44.755Z,4.15
2023-04-20T13:19:13.224Z,3.38
2023-04-20T13:21:41.707Z,4.28
2023-04-20T13:24:10.459Z,2.95
2023-04-20T13:26:39.576Z,3.85
2023-04-20T13:29:08.227Z,3.65
2023-04-20T13:31:37.196Z,3.42
2023-04-20T13:34:06.968Z,3.17
2023-04-20T13:36:35.945Z,2.63
2023-04-20T13:39:04.672Z,2.42
2023-04-20T13:41:33.523Z,3.20
2023-04-20T13:44:02.025Z,3.08
2023-04-20T13:46:31.352Z,3.50
2023-04-20T13:49:02.631Z,3.03
2023-04-20T13:51:32.803Z,3.10
2023-04-20T13:54:01.469Z,2.53
2023-04-20T13:56:30.460Z,2.78
2023-04-20T13:58:58.688Z,3.15
2023-04-20T14:01:27.459Z,2.33
2023-04-20T14:03:56.844Z,3.13
2023-04-20T14:06:26.543Z,3.25
2023-04-20T14:08:56.560Z,2.75
2023-04-20T14:11:25.333Z,3.58
2023-04-20T14:13:53.865Z,3.10
2023-04-20T14:16:23.038Z,2.85
2023-04-20T14:18:51.549Z,2.50
2023-04-20T14:21:20.329Z,2.92
2023-04-20T14:23:53.281Z,3.30
2023-04-20T14:26:23.439Z,2.60
2023-04-20T14:28:53.197Z,2.05
2023-04-20T14:31:22.141Z,2.60
2023-04-20T14:33:50.933Z,2.50
2023-04-20T14:36:20.131Z,2.83
2023-04-20T14:38:48.659Z,2.38
2023-04-20T14:41:17.949Z,2.28
2023-04-20T14:43:47.676Z,2.25
2023-04-20T14:46:16.330Z,2.67
2023-04-20T14:48:46.624Z,2.30
2023-04-20T14:51:16.261Z,2.13
2023-04-20T14:53:44.861Z,2.25
2023-04-20T14:56:13.808Z,2.58
2023-04-20T14:58:42.543Z,2.35
2023-04-20T15:01:12.612Z,2.50
2023-04-20T15:03:41.097Z,2.63
2023-04-20T15:06:10.148Z,2.53
2023-04-20T15:08:38.434Z,3.42
2023-04-20T15:11:07.395Z,2.72
2023-04-20T15:13:35.677Z,2.50
2023-04-20T15:16:04.383Z,3.92
2023-04-20T15:18:34.282Z,3.25
2023-04-20T15:21:02.873Z,3.50
2023-04-20T15:23:31.175Z,3.60
2023-04-20T15:25:59.735Z,3.63
2023-04-20T15:28:28.158Z,2.55
2023-04-20T15:30:56.752Z,2.72
2023-04-20T15:33:25.214Z,2.55
2023-04-20T15:35:55.235Z,2.92
2023-04-20T15:38:23.522Z,2.78
2023-04-20T15:40:53.843Z,2.83
2023-04-20T15:43:22.379Z,3.40
2023-04-20T15:45:50.984Z,3.05
2023-04-20T15:48:19.541Z,2.00
2023-04-20T15:50:52.475Z,2.60
2023-04-20T15:53:22.799Z,2.40
2023-04-20T15:55:51.546Z,2.13
2023-04-20T15:58:20.164Z,2.22
2023-04-20T16:00:49.056Z,2.50
2023-04-20T16:03:17.505Z,3.03
2023-04-20T16:05:46.138Z,2.20
2023-04-20T16:08:14.430Z,2.83
2023-04-20T16:10:44.355Z,2.92
2023-04-20T16:13:12.601Z,3.03
2023-04-20T16:15:41.495Z,2.85
2023-04-20T16:18:09.768Z,2.80
2023-04-20T16:20:39.470Z,2.88
2023-04-20T16:23:09.651Z,3.63
2023-04-20T16:25:38.639Z,2.80
2023-04-20T16:28:08.639Z,2.60
2023-04-20T16:30:37.537Z,2.72
2023-04-20T16:33:06.123Z,2.78
2023-04-20T16:35:34.741Z,2.90
2023-04-20T16:38:03.316Z,3.05
2023-04-20T16:40:32.089Z,2.45
2023-04-20T16:43:01.801Z,2.28
2023-04-20T16:45:33.446Z,2.88
2023-04-20T16:48:01.810Z,2.25
2023-04-20T16:50:31.083Z,2.40
2023-04-20T16:52:59.309Z,2.42
2023-04-20T16:55:27.958Z,2.00
2023-04-20T16:58:00.233Z,2.30
2023-04-20T17:00:29.281Z,2.15
2023-04-20T17:03:01.259Z,3.22
2023-04-20T17:05:30.209Z,2.95
2023-04-20T17:07:59.156Z,2.80
2023-04-20T17:10:27.882Z,3.35
2023-04-20T17:12:56.234Z,2.88
2023-04-20T17:15:24.858Z,3.00
2023-04-20T17:17:53.266Z,3.45
2023-04-20T17:20:23.350Z,3.53
2023-04-20T17:22:51.631Z,3.42
2023-04-20T17:25:20.419Z,4.63
2023-04-20T17:27:48.872Z,4.35
2023-04-20T17:30:17.533Z,3.78
2023-04-20T17:32:46.185Z,3.33
2023-04-20T17:35:17.869Z,3.95
2023-04-20T17:37:48.685Z,10.40
2023-04-20T17:40:17.275Z,5.20
2023-04-20T17:42:46.035Z,5.70
2023-04-20T17:45:14.707Z,6.97
2023-04-20T17:47:43.078Z,13.95
2023-04-20T17:50:13.405Z,14.00
2023-04-20T17:52:41.764Z,15.07
2023-04-20T17:55:11.781Z,15.85
2023-04-20T17:57:40.619Z,14.75
2023-04-20T18:00:11.643Z,11.43
2023-04-20T18:02:40.956Z,12.30
2023-04-20T18:05:10.114Z,12.48
2023-04-20T18:07:38.410Z,12.73
2023-04-20T18:10:07.978Z,11.00
2023-04-20T18:12:37.609Z,11.00
2023-04-20T18:15:08.298Z,10.13
2023-04-20T18:17:36.833Z,9.60
2023-04-20T18:20:06.466Z,10.98
2023-04-20T18:22:34.735Z,10.05
2023-04-20T18:25:03.322Z,8.40
2023-04-20T18:27:32.120Z,9.15
2023-04-20T18:30:01.991Z,7.90
2023-04-20T18:32:31.006Z,8.20
2023-04-20T18:35:00.521Z,7.75
2023-04-20T18:37:28.823Z,8.05
2023-04-20T18:39:57.675Z,7.18
2023-04-20T18:42:26.447Z,8.55
2023-04-20T18:44:55.997Z,6.95
2023-04-20T18:47:27.166Z,6.10
2023-04-20T18:49:55.666Z,7.95
2023-04-20T18:52:24.388Z,7.03
2023-04-20T18:54:55.382Z,6.65
2023-04-20T18:57:26.625Z,7.05
2023-04-20T18:59:55.372Z,6.53
2023-04-20T19:02:25.303Z,6.70
2023-04-20T19:04:54.212Z,6.63
2023-04-20T19:07:22.472Z,6.00
2023-04-20T19:09:51.227Z,6.50
2023-04-20T19:12:19.487Z,6.65
2023-04-20T19:14:49.406Z,6.28
2023-04-20T19:17:17.765Z,4.97
2023-04-20T19:19:48.250Z,6.28
2023-04-20T19:22:16.446Z,5.97
2023-04-20T19:24:44.963Z,6.72
2023-04-20T19:27:13.371Z,6.15
2023-04-20T19:29:42.245Z,5.93
2023-04-20T19:32:10.514Z,6.32
2023-04-20T19:34:39.562Z,6.35
2023-04-20T19:37:09.204Z,5.43
2023-04-20T19:39:37.790Z,6.18
2023-04-20T19:42:06.230Z,5.65
2023-04-20T19:44:35.872Z,6.22
2023-04-20T19:47:05.583Z,5.57
2023-04-20T19:49:34.394Z,6.72
2023-04-20T19:52:02.615Z,5.45
2023-04-20T19:54:32.797Z,5.95
2023-04-20T19:57:01.344Z,7.28
2023-04-20T19:59:30.480Z,6.57
2023-04-20T20:01:58.814Z,7.22
2023-04-20T20:04:28.029Z,6.47
2023-04-20T20:06:56.464Z,7.30
2023-04-20T20:09:25.253Z,5.95
2023-04-20T20:11:54.921Z,6.32
2023-04-20T20:14:23.411Z,6.28
2023-04-20T20:16:51.607Z,6.10
2023-04-20T20:19:22.021Z,6.45
2023-04-20T20:21:50.662Z,6.10
2023-04-20T20:24:19.186Z,7.07
2023-04-20T20:26:49.363Z,6.10
2023-04-20T20:29:19.533Z,6.95
2023-04-20T20:31:48.296Z,6.22
2023-04-20T20:34:16.917Z,8.43
2023-04-20T20:36:46.386Z,6.50
2023-04-20T20:39:16.039Z,5.70
2023-04-20T20:41:46.506Z,6.20
2023-04-20T20:44:15.245Z,6.68
2023-04-20T20:46:44.957Z,6.97
2023-04-20T20:49:13.545Z,7.25
2023-04-20T20:51:42.898Z,6.35
2023-04-20T20:54:11.825Z,6.03
2023-04-20T20:56:40.075Z,5.97
2023-04-20T20:59:08.719Z,6.15
2023-04-20T21:01:37.006Z,6.00
2023-04-20T21:04:07.191Z,6.20
2023-04-20T21:06:35.525Z,6.10
2023-04-20T21:09:04.282Z,6.60
2023-04-20T21:11:32.536Z,5.65
2023-04-20T21:14:02.952Z,6.32
2023-04-20T21:16:31.471Z,6.40
2023-04-20T21:19:00.129Z,5.40
2023-04-20T21:21:29.812Z,6.53
2023-04-20T21:23:58.484Z,6.80
2023-04-20T21:26:27.006Z,6.38
2023-04-20T21:28:55.490Z,6.88
2023-04-20T21:31:23.834Z,6.15
2023-04-20T21:33:52.375Z,6.28
2023-04-20T21:36:20.604Z,6.22
2023-04-20T21:38:50.715Z,6.63
2023-04-20T21:41:19.242Z,6.43
2023-04-20T21:43:48.225Z,6.05
2023-04-20T21:46:16.917Z,5.85
2023-04-20T21:48:45.502Z,7.07
2023-04-20T21:51:16.809Z,6.45
2023-04-20T21:53:45.696Z,5.40
2023-04-20T21:56:16.037Z,6.28
2023-04-20T21:58:44.717Z,5.13
2023-04-20T22:01:13.883Z,5.70
2023-04-20T22:03:42.796Z,4.85
2023-04-20T22:06:11.660Z,6.22
2023-04-20T22:08:40.510Z,6.05
2023-04-20T22:11:09.227Z,5.60
2023-04-20T22:13:39.233Z,5.20
2023-04-20T22:16:08.324Z,5.63
2023-04-20T22:18:36.908Z,5.45
2023-04-20T22:21:05.490Z,5.70
2023-04-20T22:23:34.165Z,5.47
2023-04-20T22:26:02.332Z,5.25
2023-04-20T22:28:31.088Z,5.68
2023-04-20T22:31:01.041Z,6.32
2023-04-20T22:33:29.582Z,6.00
2023-04-20T22:35:57.788Z,6.25
2023-04-20T22:38:26.815Z,6.13
2023-04-20T22:40:55.042Z,5.65
2023-04-20T22:43:24.256Z,4.88
2023-04-20T22:45:54.151Z,5.47
2023-04-20T22:48:24.315Z,5.95
2023-04-20T22:50:52.549Z,5.85
2023-04-20T22:53:21.692Z,5.22
2023-04-20T22:55:49.957Z,5.38
2023-04-20T22:58:18.457Z,4.90
2023-04-20T23:00:46.754Z,6.55
2023-04-20T23:03:15.654Z,6.35
2023-04-20T23:05:45.742Z,6.18
2023-04-20T23:08:14.635Z,5.68
2023-04-20T23:10:47.297Z,6.20
2023-04-20T23:13:18.064Z,6.05
2023-04-20T23:15:46.580Z,5.93
2023-04-20T23:18:15.152Z,6.93
2023-04-20T23:20:43.332Z,6.50
2023-04-20T23:23:13.201Z,5.43
2023-04-20T23:25:41.507Z,7.00
2023-04-20T23:28:10.094Z,7.00
2023-04-20T23:30:38.289Z,6.20
2023-04-20T23:33:06.958Z,6.63
2023-04-20T23:35:35.453Z,6.53
2023-04-20T23:38:05.362Z,6.95
2023-04-20T23:40:34.957Z,6.40
2023-04-20T23:43:03.499Z,5.78
2023-04-20T23:45:31.792Z,6.63
2023-04-20T23:48:00.284Z,6.53
2023-04-20T23:50:28.485Z,5.95
2023-04-20T23:52:57.149Z,6.20
2023-04-20T23:55:25.399Z,6.88
2023-04-20T23:57:55.279Z,5.85
